sensor_id;sensor_type;location;lat;lon;timestamp;temperature;humidity
64634;DHT22;51043;52.406;9.690;2022-11-11T00:01:32;10.70;99.90
64634;DHT22;51043;52.406;9.690;2022-11-11T00:04:17;10.60;99.90
64634;DHT22;51043;52.406;9.690;2022-11-11T00:07:03;10.50;99.90
64634;DHT22;51043;52.406;9.690;2022-11-11T00:09:49;10.50;99.90
64634;DHT22;51043;52.406;9.690;2022-11-11T00:12:34;10.60;99.90
64634;DHT22;51043;52.406;9.690;2022-11-11T00:15:20;10.70;99.90
64634;DHT22;51043;52.406;9.690;2022-11-11T00:18:08;10.60;99.90
64634;DHT22;51043;52.406;9.690;2022-11-11T00:21:13;10.60;99.90
64634;DHT22;51043;52.406;9.690;2022-11-11T00:24:31;10.60;99.90
64634;DHT22;51043;52.406;9.690;2022-11-11T00:27:38;10.50;99.90
64634;DHT22;51043;52.406;9.690;2022-11-11T00:30:25;10.50;99.90
64634;DHT22;51043;52.406;9.690;2022-11-11T00:33:10;10.40;99.90
64634;DHT22;51043;52.406;9.690;2022-11-11T00:35:56;10.40;99.90
64634;DHT22;51043;52.406;9.690;2022-11-11T00:38:41;10.30;99.90
64634;DHT22;51043;52.406;9.690;2022-11-11T00:41:29;10.40;99.90
64634;DHT22;51043;52.406;9.690;2022-11-11T00:44:15;10.40;99.90
64634;DHT22;51043;52.406;9.690;2022-11-11T00:47:01;10.30;99.90
64634;DHT22;51043;52.406;9.690;2022-11-11T00:50:13;10.30;99.90
64634;DHT22;51043;52.406;9.690;2022-11-11T00:53:23;10.30;99.90
64634;DHT22;51043;52.406;9.690;2022-11-11T00:56:10;10.40;99.90
64634;DHT22;51043;52.406;9.690;2022-11-11T00:58:56;10.40;99.90
64634;DHT22;51043;52.406;9.690;2022-11-11T01:01:41;10.40;99.90
64634;DHT22;51043;52.406;9.690;2022-11-11T01:04:28;10.20;99.90
64634;DHT22;51043;52.406;9.690;2022-11-11T01:07:14;10.20;99.90
64634;DHT22;51043;52.406;9.690;2022-11-11T01:09:59;10.30;99.90
64634;DHT22;51043;52.406;9.690;2022-11-11T01:12:45;10.30;99.90
64634;DHT22;51043;52.406;9.690;2022-11-11T01:15:32;10.40;99.90
64634;DHT22;51043;52.406;9.690;2022-11-11T01:18:21;10.40;99.90
64634;DHT22;51043;52.406;9.690;2022-11-11T01:21:16;10.30;99.90
64634;DHT22;51043;52.406;9.690;2022-11-11T01:24:02;10.30;99.90
64634;DHT22;51043;52.406;9.690;2022-11-11T01:26:48;10.30;99.90
64634;DHT22;51043;52.406;9.690;2022-11-11T01:29:33;10.30;99.90
64634;DHT22;51043;52.406;9.690;2022-11-11T01:32:19;10.20;99.90
64634;DHT22;51043;52.406;9.690;2022-11-11T01:35:05;10.20;99.90
64634;DHT22;51043;52.406;9.690;2022-11-11T01:37:56;10.20;99.90
64634;DHT22;51043;52.406;9.690;2022-11-11T01:40:45;10.30;99.90
64634;DHT22;51043;52.406;9.690;2022-11-11T01:43:32;10.40;99.90
64634;DHT22;51043;52.406;9.690;2022-11-11T01:52:37;10.30;99.90
64634;DHT22;51043;52.406;9.690;2022-11-11T01:55:24;10.30;99.90
64634;DHT22;51043;52.406;9.690;2022-11-11T01:58:14;10.20;99.90
64634;DHT22;51043;52.406;9.690;2022-11-11T02:01:03;10.00;99.90
64634;DHT22;51043;52.406;9.690;2022-11-11T02:03:52;10.30;99.90
64634;DHT22;51043;52.406;9.690;2022-11-11T02:07:02;10.30;99.90
64634;DHT22;51043;52.406;9.690;2022-11-11T02:09:51;10.30;99.90
64634;DHT22;51043;52.406;9.690;2022-11-11T02:12:37;10.30;99.90
64634;DHT22;51043;52.406;9.690;2022-11-11T02:15:41;10.30;99.90
64634;DHT22;51043;52.406;9.690;2022-11-11T02:18:27;10.20;99.90
64634;DHT22;51043;52.406;9.690;2022-11-11T02:21:34;10.20;99.90
64634;DHT22;51043;52.406;9.690;2022-11-11T02:24:22;10.20;99.90
64634;DHT22;51043;52.406;9.690;2022-11-11T02:27:12;10.20;99.90
64634;DHT22;51043;52.406;9.690;2022-11-11T02:29:59;10.20;99.90
64634;DHT22;51043;52.406;9.690;2022-11-11T02:32:48;10.10;99.90
64634;DHT22;51043;52.406;9.690;2022-11-11T02:35:37;10.10;99.90
64634;DHT22;51043;52.406;9.690;2022-11-11T02:38:24;10.20;99.90
64634;DHT22;51043;52.406;9.690;2022-11-11T02:41:11;10.30;99.90
64634;DHT22;51043;52.406;9.690;2022-11-11T02:44:15;10.20;99.90
64634;DHT22;51043;52.406;9.690;2022-11-11T02:47:01;10.20;99.90
64634;DHT22;51043;52.406;9.690;2022-11-11T02:49:46;10.30;99.90
64634;DHT22;51043;52.406;9.690;2022-11-11T02:52:32;10.30;99.90
64634;DHT22;51043;52.406;9.690;2022-11-11T02:55:18;10.40;99.90
64634;DHT22;51043;52.406;9.690;2022-11-11T02:58:03;10.40;99.90
64634;DHT22;51043;52.406;9.690;2022-11-11T03:00:49;10.40;99.90
64634;DHT22;51043;52.406;9.690;2022-11-11T03:03:34;10.40;99.90
64634;DHT22;51043;52.406;9.690;2022-11-11T03:06:20;10.40;99.90
64634;DHT22;51043;52.406;9.690;2022-11-11T03:09:05;10.40;99.90
64634;DHT22;51043;52.406;9.690;2022-11-11T03:11:51;10.50;99.90
64634;DHT22;51043;52.406;9.690;2022-11-11T03:14:37;10.50;99.90
64634;DHT22;51043;52.406;9.690;2022-11-11T03:17:23;10.50;99.90
64634;DHT22;51043;52.406;9.690;2022-11-11T03:20:26;10.50;99.90
64634;DHT22;51043;52.406;9.690;2022-11-11T03:23:31;10.40;99.90
64634;DHT22;51043;52.406;9.690;2022-11-11T03:26:17;10.40;99.90
64634;DHT22;51043;52.406;9.690;2022-11-11T03:29:04;10.40;99.90
64634;DHT22;51043;52.406;9.690;2022-11-11T03:31:49;10.40;99.90
64634;DHT22;51043;52.406;9.690;2022-11-11T03:34:35;10.30;99.90
64634;DHT22;51043;52.406;9.690;2022-11-11T03:37:21;10.30;99.90
64634;DHT22;51043;52.406;9.690;2022-11-11T03:40:25;10.20;99.90
64634;DHT22;51043;52.406;9.690;2022-11-11T03:43:11;9.90;99.90
64634;DHT22;51043;52.406;9.690;2022-11-11T03:46:02;9.70;99.90
64634;DHT22;51043;52.406;9.690;2022-11-11T03:48:48;9.60;99.90
64634;DHT22;51043;52.406;9.690;2022-11-11T03:51:33;9.30;99.90
64634;DHT22;51043;52.406;9.690;2022-11-11T03:54:19;9.10;99.90
64634;DHT22;51043;52.406;9.690;2022-11-11T03:57:05;8.90;99.90
64634;DHT22;51043;52.406;9.690;2022-11-11T04:00:10;8.80;99.90
64634;DHT22;51043;52.406;9.690;2022-11-11T04:03:04;8.60;99.90
64634;DHT22;51043;52.406;9.690;2022-11-11T04:06:09;8.60;99.90
64634;DHT22;51043;52.406;9.690;2022-11-11T04:09:14;8.40;99.90
64634;DHT22;51043;52.406;9.690;2022-11-11T04:12:18;8.30;99.90
64634;DHT22;51043;52.406;9.690;2022-11-11T04:15:04;8.20;99.90
64634;DHT22;51043;52.406;9.690;2022-11-11T04:18:08;8.10;99.90
64634;DHT22;51043;52.406;9.690;2022-11-11T04:20:54;8.00;99.90
64634;DHT22;51043;52.406;9.690;2022-11-11T04:23:59;7.90;99.90
64634;DHT22;51043;52.406;9.690;2022-11-11T04:26:45;7.90;99.90
64634;DHT22;51043;52.406;9.690;2022-11-11T04:29:31;7.80;99.90
64634;DHT22;51043;52.406;9.690;2022-11-11T04:32:19;7.70;99.90
64634;DHT22;51043;52.406;9.690;2022-11-11T04:35:19;7.60;99.90
64634;DHT22;51043;52.406;9.690;2022-11-11T04:38:05;7.50;99.90
64634;DHT22;51043;52.406;9.690;2022-11-11T04:41:09;7.40;99.90
64634;DHT22;51043;52.406;9.690;2022-11-11T04:43:57;7.40;99.90
64634;DHT22;51043;52.406;9.690;2022-11-11T04:47:01;7.30;99.90
64634;DHT22;51043;52.406;9.690;2022-11-11T04:49:46;7.30;99.90
64634;DHT22;51043;52.406;9.690;2022-11-11T04:52:33;7.10;99.90
64634;DHT22;51043;52.406;9.690;2022-11-11T04:55:20;7.00;99.90
64634;DHT22;51043;52.406;9.690;2022-11-11T04:58:27;7.00;99.90
64634;DHT22;51043;52.406;9.690;2022-11-11T05:01:13;7.00;99.90
64634;DHT22;51043;52.406;9.690;2022-11-11T05:04:18;6.90;99.90
64634;DHT22;51043;52.406;9.690;2022-11-11T05:07:04;7.00;99.90
64634;DHT22;51043;52.406;9.690;2022-11-11T05:10:08;6.90;99.90
64634;DHT22;51043;52.406;9.690;2022-11-11T05:12:53;6.80;99.90
64634;DHT22;51043;52.406;9.690;2022-11-11T05:16:00;6.70;99.90
64634;DHT22;51043;52.406;9.690;2022-11-11T05:19:07;6.60;99.90
64634;DHT22;51043;52.406;9.690;2022-11-11T05:22:19;6.60;99.90
64634;DHT22;51043;52.406;9.690;2022-11-11T05:25:07;6.50;99.90
64634;DHT22;51043;52.406;9.690;2022-11-11T05:28:10;6.50;99.90
64634;DHT22;51043;52.406;9.690;2022-11-11T05:30:56;6.40;99.90
64634;DHT22;51043;52.406;9.690;2022-11-11T05:33:42;6.40;99.90
64634;DHT22;51043;52.406;9.690;2022-11-11T05:36:27;6.30;99.90
64634;DHT22;51043;52.406;9.690;2022-11-11T05:39:13;6.20;99.90
64634;DHT22;51043;52.406;9.690;2022-11-11T05:41:58;6.20;99.90
64634;DHT22;51043;52.406;9.690;2022-11-11T05:44:44;6.20;99.90
64634;DHT22;51043;52.406;9.690;2022-11-11T05:47:30;6.20;99.90
64634;DHT22;51043;52.406;9.690;2022-11-11T05:50:20;6.10;99.90
64634;DHT22;51043;52.406;9.690;2022-11-11T05:53:06;6.10;99.90
64634;DHT22;51043;52.406;9.690;2022-11-11T05:55:52;6.10;99.90
64634;DHT22;51043;52.406;9.690;2022-11-11T05:58:37;6.00;99.90
64634;DHT22;51043;52.406;9.690;2022-11-11T06:01:23;6.00;99.90
64634;DHT22;51043;52.406;9.690;2022-11-11T06:04:09;5.90;99.90
64634;DHT22;51043;52.406;9.690;2022-11-11T06:06:56;5.80;99.90
64634;DHT22;51043;52.406;9.690;2022-11-11T06:09:42;5.80;99.90
64634;DHT22;51043;52.406;9.690;2022-11-11T06:12:27;5.80;99.90
64634;DHT22;51043;52.406;9.690;2022-11-11T06:15:37;5.80;99.90
64634;DHT22;51043;52.406;9.690;2022-11-11T06:18:23;5.70;99.90
64634;DHT22;51043;52.406;9.690;2022-11-11T06:21:11;5.60;99.90
64634;DHT22;51043;52.406;9.690;2022-11-11T06:23:57;5.60;99.90
64634;DHT22;51043;52.406;9.690;2022-11-11T06:26:42;5.50;99.90
64634;DHT22;51043;52.406;9.690;2022-11-11T06:29:28;5.40;99.90
64634;DHT22;51043;52.406;9.690;2022-11-11T06:32:13;5.50;99.90
64634;DHT22;51043;52.406;9.690;2022-11-11T06:34:59;5.40;99.90
64634;DHT22;51043;52.406;9.690;2022-11-11T06:37:44;5.40;99.90
64634;DHT22;51043;52.406;9.690;2022-11-11T06:40:30;5.30;99.90
64634;DHT22;51043;52.406;9.690;2022-11-11T06:43:16;5.30;99.90
64634;DHT22;51043;52.406;9.690;2022-11-11T06:46:02;5.30;99.90
64634;DHT22;51043;52.406;9.690;2022-11-11T06:48:48;5.40;99.90
64634;DHT22;51043;52.406;9.690;2022-11-11T06:51:35;5.50;99.90
64634;DHT22;51043;52.406;9.690;2022-11-11T06:54:21;5.60;99.90
64634;DHT22;51043;52.406;9.690;2022-11-11T06:57:07;5.60;99.90
64634;DHT22;51043;52.406;9.690;2022-11-11T06:59:57;5.70;99.90
64634;DHT22;51043;52.406;9.690;2022-11-11T07:02:44;5.70;99.90
64634;DHT22;51043;52.406;9.690;2022-11-11T07:05:34;5.80;99.90
64634;DHT22;51043;52.406;9.690;2022-11-11T07:08:22;5.80;99.90
64634;DHT22;51043;52.406;9.690;2022-11-11T07:11:09;5.90;99.90
64634;DHT22;51043;52.406;9.690;2022-11-11T07:13:58;5.90;99.90
64634;DHT22;51043;52.406;9.690;2022-11-11T07:16:44;6.00;99.90
64634;DHT22;51043;52.406;9.690;2022-11-11T07:19:30;6.10;99.90
64634;DHT22;51043;52.406;9.690;2022-11-11T07:22:15;6.20;99.90
64634;DHT22;51043;52.406;9.690;2022-11-11T07:25:01;6.30;99.90
64634;DHT22;51043;52.406;9.690;2022-11-11T07:27:49;6.40;99.90
64634;DHT22;51043;52.406;9.690;2022-11-11T07:30:37;6.40;99.90
64634;DHT22;51043;52.406;9.690;2022-11-11T07:33:24;6.50;99.90
64634;DHT22;51043;52.406;9.690;2022-11-11T07:36:09;6.70;99.90
64634;DHT22;51043;52.406;9.690;2022-11-11T07:38:55;6.90;99.90
64634;DHT22;51043;52.406;9.690;2022-11-11T07:41:42;7.10;99.90
64634;DHT22;51043;52.406;9.690;2022-11-11T07:44:33;7.20;99.90
64634;DHT22;51043;52.406;9.690;2022-11-11T07:47:19;7.60;99.90
64634;DHT22;51043;52.406;9.690;2022-11-11T07:50:06;7.90;99.90
64634;DHT22;51043;52.406;9.690;2022-11-11T07:52:52;8.20;99.90
64634;DHT22;51043;52.406;9.690;2022-11-11T07:55:38;8.50;99.90
64634;DHT22;51043;52.406;9.690;2022-11-11T07:58:23;8.70;99.90
64634;DHT22;51043;52.406;9.690;2022-11-11T08:01:09;8.90;99.90
64634;DHT22;51043;52.406;9.690;2022-11-11T08:03:55;9.00;99.90
64634;DHT22;51043;52.406;9.690;2022-11-11T08:06:40;9.20;99.90
64634;DHT22;51043;52.406;9.690;2022-11-11T08:09:31;9.30;99.90
64634;DHT22;51043;52.406;9.690;2022-11-11T08:12:17;9.30;99.90
64634;DHT22;51043;52.406;9.690;2022-11-11T08:15:23;9.40;99.90
64634;DHT22;51043;52.406;9.690;2022-11-11T08:18:09;9.50;99.90
64634;DHT22;51043;52.406;9.690;2022-11-11T08:20:54;9.70;99.90
64634;DHT22;51043;52.406;9.690;2022-11-11T08:23:42;10.10;99.90
64634;DHT22;51043;52.406;9.690;2022-11-11T08:26:48;10.50;99.90
64634;DHT22;51043;52.406;9.690;2022-11-11T08:29:33;10.70;99.90
64634;DHT22;51043;52.406;9.690;2022-11-11T08:32:19;10.90;99.90
64634;DHT22;51043;52.406;9.690;2022-11-11T08:35:05;11.20;99.90
64634;DHT22;51043;52.406;9.690;2022-11-11T08:37:51;11.50;99.90
64634;DHT22;51043;52.406;9.690;2022-11-11T08:40:36;11.60;99.90
64634;DHT22;51043;52.406;9.690;2022-11-11T08:43:25;11.70;99.90
64634;DHT22;51043;52.406;9.690;2022-11-11T08:46:10;11.80;99.90
64634;DHT22;51043;52.406;9.690;2022-11-11T08:48:58;11.80;99.90
64634;DHT22;51043;52.406;9.690;2022-11-11T08:51:44;12.00;99.90
64634;DHT22;51043;52.406;9.690;2022-11-11T08:54:29;12.10;99.90
64634;DHT22;51043;52.406;9.690;2022-11-11T08:57:15;12.20;99.90
64634;DHT22;51043;52.406;9.690;2022-11-11T09:00:01;12.30;99.90
64634;DHT22;51043;52.406;9.690;2022-11-11T09:02:48;12.40;99.90
64634;DHT22;51043;52.406;9.690;2022-11-11T09:05:36;12.50;99.90
64634;DHT22;51043;52.406;9.690;2022-11-11T09:08:22;12.60;99.90
64634;DHT22;51043;52.406;9.690;2022-11-11T09:11:07;12.80;99.90
64634;DHT22;51043;52.406;9.690;2022-11-11T09:13:53;12.90;99.90
64634;DHT22;51043;52.406;9.690;2022-11-11T09:16:39;13.00;99.90
64634;DHT22;51043;52.406;9.690;2022-11-11T09:19:24;13.10;99.90
64634;DHT22;51043;52.406;9.690;2022-11-11T09:22:10;13.20;99.90
64634;DHT22;51043;52.406;9.690;2022-11-11T09:24:56;13.20;99.90
64634;DHT22;51043;52.406;9.690;2022-11-11T09:27:42;13.30;99.90
64634;DHT22;51043;52.406;9.690;2022-11-11T09:30:28;13.30;99.90
64634;DHT22;51043;52.406;9.690;2022-11-11T09:33:14;13.40;99.90
64634;DHT22;51043;52.406;9.690;2022-11-11T09:36:00;13.40;99.90
64634;DHT22;51043;52.406;9.690;2022-11-11T09:38:47;13.40;99.90
64634;DHT22;51043;52.406;9.690;2022-11-11T09:48:12;13.80;99.90
64634;DHT22;51043;52.406;9.690;2022-11-11T09:51:11;13.90;99.90
64634;DHT22;51043;52.406;9.690;2022-11-11T09:54:04;14.20;99.90
64634;DHT22;51043;52.406;9.690;2022-11-11T09:56:52;14.40;99.90
64634;DHT22;51043;52.406;9.690;2022-11-11T09:59:44;14.40;99.90
64634;DHT22;51043;52.406;9.690;2022-11-11T10:02:39;14.60;99.90
64634;DHT22;51043;52.406;9.690;2022-11-11T10:14:35;15.30;99.90
64634;DHT22;51043;52.406;9.690;2022-11-11T10:20:40;16.00;99.90
64634;DHT22;51043;52.406;9.690;2022-11-11T10:23:32;16.70;99.90
64634;DHT22;51043;52.406;9.690;2022-11-11T10:26:35;17.20;99.90
64634;DHT22;51043;52.406;9.690;2022-11-11T10:29:34;16.80;99.90
64634;DHT22;51043;52.406;9.690;2022-11-11T10:32:26;16.70;99.90
64634;DHT22;51043;52.406;9.690;2022-11-11T10:35:32;16.90;99.90
64634;DHT22;51043;52.406;9.690;2022-11-11T10:41:57;17.20;99.90
64634;DHT22;51043;52.406;9.690;2022-11-11T10:44:43;18.00;99.90
64634;DHT22;51043;52.406;9.690;2022-11-11T10:50:42;18.40;99.90
64634;DHT22;51043;52.406;9.690;2022-11-11T10:59:46;18.10;99.90
64634;DHT22;51043;52.406;9.690;2022-11-11T11:02:54;18.00;99.90
64634;DHT22;51043;52.406;9.690;2022-11-11T11:05:57;17.80;99.90
64634;DHT22;51043;52.406;9.690;2022-11-11T11:08:48;17.60;99.90
64634;DHT22;51043;52.406;9.690;2022-11-11T11:11:39;17.70;99.90
64634;DHT22;51043;52.406;9.690;2022-11-11T11:14:33;17.80;99.90
64634;DHT22;51043;52.406;9.690;2022-11-11T11:17:41;17.70;99.90
64634;DHT22;51043;52.406;9.690;2022-11-11T11:20:32;17.60;99.90
64634;DHT22;51043;52.406;9.690;2022-11-11T11:23:34;17.30;99.90
64634;DHT22;51043;52.406;9.690;2022-11-11T11:26:21;17.00;99.90
64634;DHT22;51043;52.406;9.690;2022-11-11T11:29:06;17.00;99.90
64634;DHT22;51043;52.406;9.690;2022-11-11T11:31:52;16.90;99.90
64634;DHT22;51043;52.406;9.690;2022-11-11T11:37:48;17.10;99.90
64634;DHT22;51043;52.406;9.690;2022-11-11T11:41:03;17.30;99.90
64634;DHT22;51043;52.406;9.690;2022-11-11T11:43:49;17.50;99.90
64634;DHT22;51043;52.406;9.690;2022-11-11T11:46:39;17.60;99.90
64634;DHT22;51043;52.406;9.690;2022-11-11T11:49:54;17.20;99.90
64634;DHT22;51043;52.406;9.690;2022-11-11T11:52:49;16.90;99.90
64634;DHT22;51043;52.406;9.690;2022-11-11T11:55:47;16.60;99.90
64634;DHT22;51043;52.406;9.690;2022-11-11T12:02:40;16.30;99.90
64634;DHT22;51043;52.406;9.690;2022-11-11T12:08:23;16.40;99.90
64634;DHT22;51043;52.406;9.690;2022-11-11T12:21:01;16.40;99.90
64634;DHT22;51043;52.406;9.690;2022-11-11T12:24:21;16.40;99.90
64634;DHT22;51043;52.406;9.690;2022-11-11T12:30:25;16.30;99.90
64634;DHT22;51043;52.406;9.690;2022-11-11T12:39:38;16.20;99.90
64634;DHT22;51043;52.406;9.690;2022-11-11T12:42:45;16.30;99.90
64634;DHT22;51043;52.406;9.690;2022-11-11T12:46:41;16.30;99.90
64634;DHT22;51043;52.406;9.690;2022-11-11T12:49:45;16.40;99.90
64634;DHT22;51043;52.406;9.690;2022-11-11T12:55:40;16.40;99.90
64634;DHT22;51043;52.406;9.690;2022-11-11T12:58:40;16.40;99.90
64634;DHT22;51043;52.406;9.690;2022-11-11T13:04:44;16.30;99.90
64634;DHT22;51043;52.406;9.690;2022-11-11T13:17:22;16.30;99.90
64634;DHT22;51043;52.406;9.690;2022-11-11T13:23:21;16.30;99.90
64634;DHT22;51043;52.406;9.690;2022-11-11T13:26:25;16.30;99.90
64634;DHT22;51043;52.406;9.690;2022-11-11T13:29:20;16.30;99.90
64634;DHT22;51043;52.406;9.690;2022-11-11T13:32:12;16.20;99.90
64634;DHT22;51043;52.406;9.690;2022-11-11T13:34:58;16.20;99.90
64634;DHT22;51043;52.406;9.690;2022-11-11T13:37:44;16.20;99.90
64634;DHT22;51043;52.406;9.690;2022-11-11T13:43:22;16.20;99.90
64634;DHT22;51043;52.406;9.690;2022-11-11T13:49:35;16.10;99.90
64634;DHT22;51043;52.406;9.690;2022-11-11T13:52:33;16.00;99.90
64634;DHT22;51043;52.406;9.690;2022-11-11T13:58:26;16.00;99.90
64634;DHT22;51043;52.406;9.690;2022-11-11T14:01:13;15.90;99.90
64634;DHT22;51043;52.406;9.690;2022-11-11T14:04:02;15.90;99.90
64634;DHT22;51043;52.406;9.690;2022-11-11T14:06:50;15.80;99.90
64634;DHT22;51043;52.406;9.690;2022-11-11T14:10:00;15.80;99.90
64634;DHT22;51043;52.406;9.690;2022-11-11T14:12:54;15.70;99.90
64634;DHT22;51043;52.406;9.690;2022-11-11T14:15:49;15.70;99.90
64634;DHT22;51043;52.406;9.690;2022-11-11T14:18:39;15.70;99.90
64634;DHT22;51043;52.406;9.690;2022-11-11T14:21:48;15.60;99.90
64634;DHT22;51043;52.406;9.690;2022-11-11T14:27:29;15.50;99.90
64634;DHT22;51043;52.406;9.690;2022-11-11T14:30:36;15.40;99.90
64634;DHT22;51043;52.406;9.690;2022-11-11T14:37:08;15.20;99.90
64634;DHT22;51043;52.406;9.690;2022-11-11T14:39:56;15.10;99.90
64634;DHT22;51043;52.406;9.690;2022-11-11T14:42:44;15.00;99.90
64634;DHT22;51043;52.406;9.690;2022-11-11T14:48:51;15.00;99.90
64634;DHT22;51043;52.406;9.690;2022-11-11T14:51:52;14.90;99.90
64634;DHT22;51043;52.406;9.690;2022-11-11T15:01:07;14.60;99.90
64634;DHT22;51043;52.406;9.690;2022-11-11T15:03:55;14.30;99.90
64634;DHT22;51043;52.406;9.690;2022-11-11T15:06:55;14.20;99.90
64634;DHT22;51043;52.406;9.690;2022-11-11T15:10:17;14.00;99.90
64634;DHT22;51043;52.406;9.690;2022-11-11T15:13:12;13.90;99.90
64634;DHT22;51043;52.406;9.690;2022-11-11T15:16:16;13.80;99.90
64634;DHT22;51043;52.406;9.690;2022-11-11T15:25:24;13.40;99.90
64634;DHT22;51043;52.406;9.690;2022-11-11T15:37:17;12.60;99.90
64634;DHT22;51043;52.406;9.690;2022-11-11T15:40:05;12.50;99.90
64634;DHT22;51043;52.406;9.690;2022-11-11T15:42:51;12.40;99.90
64634;DHT22;51043;52.406;9.690;2022-11-11T15:45:37;12.20;99.90
64634;DHT22;51043;52.406;9.690;2022-11-11T15:48:26;12.00;99.90
64634;DHT22;51043;52.406;9.690;2022-11-11T15:51:30;11.80;99.90
64634;DHT22;51043;52.406;9.690;2022-11-11T15:54:19;11.50;99.90
64634;DHT22;51043;52.406;9.690;2022-11-11T15:57:27;11.30;99.90
64634;DHT22;51043;52.406;9.690;2022-11-11T16:00:26;11.10;99.90
64634;DHT22;51043;52.406;9.690;2022-11-11T16:03:18;10.90;99.90
64634;DHT22;51043;52.406;9.690;2022-11-11T16:06:11;10.80;99.90
64634;DHT22;51043;52.406;9.690;2022-11-11T16:09:01;10.60;99.90
64634;DHT22;51043;52.406;9.690;2022-11-11T16:11:48;10.40;99.90
64634;DHT22;51043;52.406;9.690;2022-11-11T16:14:39;10.40;99.90
64634;DHT22;51043;52.406;9.690;2022-11-11T16:17:37;10.20;99.90
64634;DHT22;51043;52.406;9.690;2022-11-11T16:20:29;10.10;99.90
64634;DHT22;51043;52.406;9.690;2022-11-11T16:23:17;9.90;99.90
64634;DHT22;51043;52.406;9.690;2022-11-11T16:26:04;9.70;99.90
64634;DHT22;51043;52.406;9.690;2022-11-11T16:28:52;9.60;99.90
64634;DHT22;51043;52.406;9.690;2022-11-11T16:31:40;9.50;99.90
64634;DHT22;51043;52.406;9.690;2022-11-11T16:37:16;9.50;99.90
64634;DHT22;51043;52.406;9.690;2022-11-11T16:40:39;9.50;99.90
64634;DHT22;51043;52.406;9.690;2022-11-11T16:43:29;9.50;99.90
64634;DHT22;51043;52.406;9.690;2022-11-11T16:49:24;9.40;99.90
64634;DHT22;51043;52.406;9.690;2022-11-11T16:52:15;9.40;99.90
64634;DHT22;51043;52.406;9.690;2022-11-11T16:55:02;9.30;99.90
64634;DHT22;51043;52.406;9.690;2022-11-11T16:57:49;9.20;99.90
64634;DHT22;51043;52.406;9.690;2022-11-11T17:00:36;9.20;99.90
64634;DHT22;51043;52.406;9.690;2022-11-11T17:03:23;9.10;99.90
64634;DHT22;51043;52.406;9.690;2022-11-11T17:06:12;9.00;99.90
64634;DHT22;51043;52.406;9.690;2022-11-11T17:08:57;9.00;99.90
64634;DHT22;51043;52.406;9.690;2022-11-11T17:11:44;9.00;99.90
64634;DHT22;51043;52.406;9.690;2022-11-11T17:14:36;8.70;99.90
64634;DHT22;51043;52.406;9.690;2022-11-11T17:17:22;8.60;99.90
64634;DHT22;51043;52.406;9.690;2022-11-11T17:20:18;8.60;99.90
64634;DHT22;51043;52.406;9.690;2022-11-11T17:23:05;8.50;99.90
64634;DHT22;51043;52.406;9.690;2022-11-11T17:25:55;8.50;99.90
64634;DHT22;51043;52.406;9.690;2022-11-11T17:28:40;8.50;99.90
64634;DHT22;51043;52.406;9.690;2022-11-11T17:31:27;8.40;99.90
64634;DHT22;51043;52.406;9.690;2022-11-11T17:34:12;8.40;99.90
64634;DHT22;51043;52.406;9.690;2022-11-11T17:36:58;8.30;99.90
64634;DHT22;51043;52.406;9.690;2022-11-11T17:39:43;8.30;99.90
64634;DHT22;51043;52.406;9.690;2022-11-11T17:42:30;8.20;99.90
64634;DHT22;51043;52.406;9.690;2022-11-11T17:45:16;8.20;99.90
64634;DHT22;51043;52.406;9.690;2022-11-11T17:48:02;8.20;99.90
64634;DHT22;51043;52.406;9.690;2022-11-11T17:50:47;8.10;99.90
64634;DHT22;51043;52.406;9.690;2022-11-11T17:53:34;8.10;99.90
64634;DHT22;51043;52.406;9.690;2022-11-11T17:56:21;8.20;99.90
64634;DHT22;51043;52.406;9.690;2022-11-11T17:59:07;8.20;99.90
64634;DHT22;51043;52.406;9.690;2022-11-11T18:01:52;8.20;99.90
64634;DHT22;51043;52.406;9.690;2022-11-11T18:04:39;8.10;99.90
64634;DHT22;51043;52.406;9.690;2022-11-11T18:07:24;8.10;99.90
64634;DHT22;51043;52.406;9.690;2022-11-11T18:10:11;8.00;99.90
64634;DHT22;51043;52.406;9.690;2022-11-11T18:12:57;7.90;99.90
64634;DHT22;51043;52.406;9.690;2022-11-11T18:15:43;7.80;99.90
64634;DHT22;51043;52.406;9.690;2022-11-11T18:18:29;7.90;99.90
64634;DHT22;51043;52.406;9.690;2022-11-11T18:21:15;8.10;99.90
64634;DHT22;51043;52.406;9.690;2022-11-11T18:24:03;8.10;99.90
64634;DHT22;51043;52.406;9.690;2022-11-11T18:26:48;8.20;99.90
64634;DHT22;51043;52.406;9.690;2022-11-11T18:29:34;8.30;99.90
64634;DHT22;51043;52.406;9.690;2022-11-11T18:32:20;8.50;99.90
64634;DHT22;51043;52.406;9.690;2022-11-11T18:35:05;8.50;99.90
64634;DHT22;51043;52.406;9.690;2022-11-11T18:37:51;8.70;99.90
64634;DHT22;51043;52.406;9.690;2022-11-11T18:40:37;8.70;99.90
64634;DHT22;51043;52.406;9.690;2022-11-11T18:43:22;8.70;99.90
64634;DHT22;51043;52.406;9.690;2022-11-11T18:46:16;8.70;99.90
64634;DHT22;51043;52.406;9.690;2022-11-11T18:49:03;8.60;99.90
64634;DHT22;51043;52.406;9.690;2022-11-11T18:51:49;8.60;99.90
64634;DHT22;51043;52.406;9.690;2022-11-11T18:54:34;8.50;99.90
64634;DHT22;51043;52.406;9.690;2022-11-11T18:57:20;8.50;99.90
64634;DHT22;51043;52.406;9.690;2022-11-11T19:00:06;8.30;99.90
64634;DHT22;51043;52.406;9.690;2022-11-11T19:02:52;8.10;99.90
64634;DHT22;51043;52.406;9.690;2022-11-11T19:05:37;8.00;99.90
64634;DHT22;51043;52.406;9.690;2022-11-11T19:08:22;7.90;99.90
64634;DHT22;51043;52.406;9.690;2022-11-11T19:11:08;7.60;99.90
64634;DHT22;51043;52.406;9.690;2022-11-11T19:13:55;7.70;99.90
64634;DHT22;51043;52.406;9.690;2022-11-11T19:16:40;7.60;99.90
64634;DHT22;51043;52.406;9.690;2022-11-11T19:19:26;7.70;99.90
64634;DHT22;51043;52.406;9.690;2022-11-11T19:22:11;7.70;99.90
64634;DHT22;51043;52.406;9.690;2022-11-11T19:24:57;7.70;99.90
64634;DHT22;51043;52.406;9.690;2022-11-11T19:27:43;7.70;99.90
64634;DHT22;51043;52.406;9.690;2022-11-11T19:30:29;7.60;99.90
64634;DHT22;51043;52.406;9.690;2022-11-11T19:33:15;7.50;99.90
64634;DHT22;51043;52.406;9.690;2022-11-11T19:36:03;7.30;99.90
64634;DHT22;51043;52.406;9.690;2022-11-11T19:38:49;7.30;99.90
64634;DHT22;51043;52.406;9.690;2022-11-11T19:41:35;7.30;99.90
64634;DHT22;51043;52.406;9.690;2022-11-11T19:44:20;7.20;99.90
64634;DHT22;51043;52.406;9.690;2022-11-11T19:47:08;7.10;99.90
64634;DHT22;51043;52.406;9.690;2022-11-11T19:49:53;7.10;99.90
64634;DHT22;51043;52.406;9.690;2022-11-11T19:52:39;7.10;99.90
64634;DHT22;51043;52.406;9.690;2022-11-11T19:55:24;7.00;99.90
64634;DHT22;51043;52.406;9.690;2022-11-11T19:58:10;7.00;99.90
64634;DHT22;51043;52.406;9.690;2022-11-11T20:01:06;6.90;99.90
64634;DHT22;51043;52.406;9.690;2022-11-11T20:03:52;6.80;99.90
64634;DHT22;51043;52.406;9.690;2022-11-11T20:06:38;6.80;99.90
64634;DHT22;51043;52.406;9.690;2022-11-11T20:09:23;6.70;99.90
64634;DHT22;51043;52.406;9.690;2022-11-11T20:12:09;6.80;99.90
64634;DHT22;51043;52.406;9.690;2022-11-11T20:14:54;6.80;99.90
64634;DHT22;51043;52.406;9.690;2022-11-11T20:17:40;6.60;99.90